createdAt,value
2019-03-20T00:01:26.607Z,3.43
2019-03-20T00:03:55.724Z,4.00
2019-03-20T00:06:24.645Z,3.70
2019-03-20T00:08:53.486Z,4.00
2019-03-20T00:11:22.308Z,2.97
2019-03-20T00:13:51.086Z,2.83
2019-03-20T00:16:20.068Z,3.63
2019-03-20T00:18:51.883Z,3.23
2019-03-20T00:21:20.740Z,3.10
2019-03-20T00:23:49.613Z,3.03
2019-03-20T00:26:18.426Z,3.53
2019-03-20T00:28:47.272Z,3.10
2019-03-20T00:31:16.085Z,3.03
2019-03-20T00:33:44.972Z,3.37
2019-03-20T00:36:13.710Z,3.60
2019-03-20T00:38:42.558Z,2.87
2019-03-20T00:41:11.516Z,3.33
2019-03-20T00:43:40.411Z,3.77
2019-03-20T00:46:09.334Z,3.20
2019-03-20T00:48:38.169Z,3.13
2019-03-20T00:51:07.023Z,3.13
2019-03-20T00:53:35.982Z,2.77
2019-03-20T00:56:04.905Z,2.87
2019-03-20T00:58:33.800Z,3.60
2019-03-20T01:01:02.774Z,3.80
2019-03-20T01:03:31.594Z,3.50
2019-03-20T01:06:00.335Z,4.03
2019-03-20T01:08:29.159Z,3.97
2019-03-20T01:10:57.886Z,3.43
2019-03-20T01:13:26.674Z,2.93
2019-03-20T01:15:55.493Z,3.03
2019-03-20T01:18:24.312Z,3.27
2019-03-20T01:20:53.208Z,2.97
2019-03-20T01:23:22.021Z,2.93
2019-03-20T01:25:50.862Z,3.07
2019-03-20T01:28:19.715Z,2.47
2019-03-20T01:30:48.664Z,3.20
2019-03-20T01:33:17.675Z,3.53
2019-03-20T01:35:46.398Z,2.83
2019-03-20T01:38:15.286Z,3.03
2019-03-20T01:40:44.246Z,2.73
2019-03-20T01:43:13.164Z,2.80
2019-03-20T01:45:42.190Z,3.00
2019-03-20T01:48:11.012Z,2.80
2019-03-20T01:50:39.931Z,2.20
2019-03-20T01:53:08.814Z,3.00
2019-03-20T01:55:37.658Z,3.00
2019-03-20T01:58:06.605Z,2.67
2019-03-20T02:00:35.553Z,2.80
2019-03-20T02:03:04.660Z,2.03
2019-03-20T02:05:36.218Z,2.20
2019-03-20T02:08:04.105Z,2.40
2019-03-20T02:10:33.029Z,2.53
2019-03-20T02:13:01.951Z,3.67
2019-03-20T02:15:38.858Z,3.20
2019-03-20T02:18:01.435Z,3.07
2019-03-20T02:20:30.219Z,2.73
2019-03-20T02:22:59.140Z,2.57
2019-03-20T02:25:28.045Z,2.80
2019-03-20T02:27:56.902Z,2.63
2019-03-20T02:30:25.677Z,2.67
2019-03-20T02:32:54.563Z,3.20
2019-03-20T02:35:23.381Z,2.30
2019-03-20T02:37:52.256Z,2.70
2019-03-20T02:40:21.133Z,2.73
2019-03-20T02:42:50.123Z,2.90
2019-03-20T02:45:19.145Z,3.10
2019-03-20T02:47:49.616Z,2.87
2019-03-20T02:50:18.735Z,2.70
2019-03-20T02:52:47.727Z,2.30
2019-03-20T02:55:16.610Z,3.03
2019-03-20T02:57:45.579Z,2.23
2019-03-20T03:00:15.646Z,2.50
2019-03-20T03:02:44.628Z,2.40
2019-03-20T03:05:13.584Z,3.00
2019-03-20T03:07:42.514Z,2.40
2019-03-20T03:10:11.399Z,2.10
2019-03-20T03:12:40.391Z,2.97
2019-03-20T03:15:09.491Z,2.80
2019-03-20T03:17:38.554Z,2.43
2019-03-20T03:20:07.751Z,2.37
2019-03-20T03:22:36.856Z,2.87
2019-03-20T03:25:06.351Z,3.33
2019-03-20T03:27:35.344Z,2.83
2019-03-20T03:30:04.373Z,2.87
2019-03-20T03:32:33.336Z,3.27
2019-03-20T03:35:02.129Z,2.60
2019-03-20T03:37:30.936Z,2.67
2019-03-20T03:39:59.775Z,2.73
2019-03-20T03:42:28.809Z,2.57
2019-03-20T03:44:57.692Z,2.20
2019-03-20T03:47:26.651Z,2.70
2019-03-20T03:49:55.602Z,2.33
2019-03-20T03:52:24.528Z,3.00
2019-03-20T03:54:53.405Z,2.30
2019-03-20T03:57:22.340Z,2.70
2019-03-20T03:59:52.273Z,2.13
2019-03-20T04:02:21.499Z,3.10
2019-03-20T04:04:50.409Z,2.43
2019-03-20T04:07:19.551Z,2.37
2019-03-20T04:09:48.591Z,2.47
2019-03-20T04:12:17.506Z,2.60
2019-03-20T04:14:46.386Z,2.47
2019-03-20T04:17:23.204Z,2.57
2019-03-20T04:19:52.267Z,2.57
2019-03-20T04:22:21.285Z,2.67
2019-03-20T04:24:50.244Z,2.80
2019-03-20T04:27:19.105Z,2.77
2019-03-20T04:29:47.915Z,2.27
2019-03-20T04:32:16.755Z,2.63
2019-03-20T04:34:45.681Z,2.53
2019-03-20T04:37:14.558Z,2.97
2019-03-20T04:39:43.548Z,2.70
2019-03-20T04:42:12.585Z,2.40
2019-03-20T04:44:41.485Z,2.10
2019-03-20T04:47:10.355Z,2.43
2019-03-20T04:49:40.442Z,2.30
2019-03-20T04:52:09.522Z,2.53
2019-03-20T04:54:38.446Z,2.60
2019-03-20T04:57:07.288Z,2.43
2019-03-20T04:59:36.140Z,2.60
2019-03-20T05:02:06.047Z,2.10
2019-03-20T05:04:35.149Z,2.50
2019-03-20T05:07:04.229Z,2.70
2019-03-20T05:09:34.868Z,2.53
2019-03-20T05:12:04.005Z,2.83
2019-03-20T05:14:32.959Z,2.40
2019-03-20T05:17:01.962Z,2.30
2019-03-20T05:19:30.780Z,2.33
2019-03-20T05:21:59.663Z,2.50
2019-03-20T05:24:28.833Z,3.00
2019-03-20T05:26:57.754Z,2.77
2019-03-20T05:29:29.201Z,2.70
2019-03-20T05:31:59.420Z,2.40
2019-03-20T05:34:28.563Z,2.43
2019-03-20T05:37:09.963Z,2.57
2019-03-20T05:39:31.541Z,2.43
2019-03-20T05:42:02.976Z,2.23
2019-03-20T05:44:32.125Z,2.70
2019-03-20T05:47:03.604Z,2.80
2019-03-20T05:49:32.676Z,2.37
2019-03-20T05:52:02.874Z,2.37
2019-03-20T05:54:33.308Z,2.83
2019-03-20T05:57:02.692Z,2.53
2019-03-20T05:59:34.591Z,2.33
2019-03-20T06:02:03.793Z,2.20
2019-03-20T06:04:36.304Z,2.57
2019-03-20T06:07:05.712Z,2.20
2019-03-20T06:09:34.932Z,2.67
2019-03-20T06:12:08.633Z,2.50
2019-03-20T06:14:35.148Z,2.40
2019-03-20T06:17:04.281Z,2.27
2019-03-20T06:19:33.322Z,2.33
2019-03-20T06:22:02.382Z,2.83
2019-03-20T06:24:31.665Z,2.73
2019-03-20T06:27:00.987Z,2.90
2019-03-20T06:29:30.104Z,2.73
2019-03-20T06:31:59.127Z,2.60
2019-03-20T06:34:30.994Z,2.00
2019-03-20T06:37:02.547Z,2.20
2019-03-20T06:39:34.129Z,2.20
2019-03-20T06:42:03.288Z,3.00
2019-03-20T06:44:32.192Z,2.43
2019-03-20T06:47:01.204Z,2.80
2019-03-20T06:49:30.047Z,2.70
2019-03-20T06:51:59.180Z,2.40
2019-03-20T06:54:28.096Z,2.87
2019-03-20T06:56:57.284Z,3.10
2019-03-20T07:00:09.350Z,2.83
2019-03-20T07:02:39.072Z,2.47
2019-03-20T07:05:48.546Z,2.10
2019-03-20T07:08:19.266Z,2.53
2019-03-20T07:11:03.122Z,2.30
2019-03-20T07:13:32.048Z,2.57
2019-03-20T07:16:03.358Z,2.50
2019-03-20T07:18:32.424Z,2.97
2019-03-20T07:21:01.557Z,2.87
2019-03-20T07:23:30.555Z,2.70
2019-03-20T07:25:59.506Z,2.87
2019-03-20T07:28:29.778Z,2.80
2019-03-20T07:31:00.433Z,2.77
2019-03-20T07:33:29.390Z,2.77
2019-03-20T07:35:58.491Z,3.17
2019-03-20T07:38:27.487Z,2.60
2019-03-20T07:40:59.636Z,3.03
2019-03-20T07:43:31.745Z,2.90
2019-03-20T07:46:02.164Z,2.70
2019-03-20T07:48:31.052Z,2.90
2019-03-20T07:51:02.894Z,2.93
2019-03-20T07:53:31.742Z,2.93
2019-03-20T07:56:01.981Z,3.13
2019-03-20T07:58:30.976Z,3.43
2019-03-20T08:01:01.409Z,2.30
2019-03-20T08:03:32.419Z,2.87
2019-03-20T08:06:01.786Z,2.73
2019-03-20T08:08:31.281Z,2.67
2019-03-20T08:11:00.665Z,2.43
2019-03-20T08:13:29.901Z,2.33
2019-03-20T08:15:59.114Z,2.30
2019-03-20T08:18:34.446Z,3.03
2019-03-20T08:21:05.447Z,2.40
2019-03-20T08:23:38.474Z,2.93
2019-03-20T08:26:09.222Z,2.33
2019-03-20T08:28:41.270Z,1.87
2019-03-20T08:31:10.439Z,1.83
2019-03-20T08:33:39.762Z,1.50
2019-03-20T08:36:12.166Z,2.10
2019-03-20T08:38:44.176Z,1.10
2019-03-20T08:41:13.594Z,1.03
2019-03-20T08:43:42.999Z,0.93
2019-03-20T08:46:12.322Z,1.03
2019-03-20T08:48:43.999Z,1.10
2019-03-20T08:51:13.169Z,1.67
2019-03-20T08:53:42.224Z,1.33
2019-03-20T08:56:11.607Z,1.70
2019-03-20T08:58:40.741Z,1.37
2019-03-20T09:01:11.051Z,1.20
2019-03-20T09:03:44.620Z,1.20
2019-03-20T09:06:22.559Z,1.40
2019-03-20T09:08:51.806Z,1.23
2019-03-20T09:11:24.614Z,1.00
2019-03-20T09:13:54.061Z,1.30
2019-03-20T09:16:23.182Z,1.50
2019-03-20T09:18:52.365Z,1.17
2019-03-20T09:21:23.818Z,0.70
2019-03-20T09:23:52.874Z,1.37
2019-03-20T09:26:24.074Z,1.50
2019-03-20T09:28:53.253Z,1.20
2019-03-20T09:31:25.465Z,1.10
2019-03-20T09:33:57.782Z,1.00
2019-03-20T09:36:26.944Z,0.80
2019-03-20T09:38:59.378Z,0.67
2019-03-20T09:41:42.691Z,1.50
2019-03-20T09:44:11.695Z,0.70
2019-03-20T09:46:40.651Z,0.70
2019-03-20T09:49:15.208Z,1.00
2019-03-20T09:51:44.457Z,1.07
2019-03-20T09:54:15.099Z,0.93
2019-03-20T09:56:44.469Z,1.23
2019-03-20T09:59:14.737Z,1.20
2019-03-20T10:01:43.911Z,1.13
2019-03-20T10:04:15.077Z,1.27
2019-03-20T10:06:44.579Z,1.00
2019-03-20T10:09:16.804Z,1.10
2019-03-20T10:11:48.249Z,1.57
2019-03-20T10:14:17.430Z,1.20
2019-03-20T10:16:46.563Z,0.90
2019-03-20T10:19:15.855Z,0.97
2019-03-20T10:21:47.931Z,1.00
2019-03-20T10:24:17.513Z,1.03
2019-03-20T10:26:46.834Z,1.67
2019-03-20T10:29:21.533Z,1.00
2019-03-20T10:31:51.996Z,0.60
2019-03-20T10:34:21.036Z,0.93
2019-03-20T10:36:50.142Z,1.10
2019-03-20T10:39:19.277Z,0.93
2019-03-20T10:41:48.346Z,1.07
2019-03-20T10:44:17.484Z,1.40
2019-03-20T10:46:46.638Z,0.80
2019-03-20T10:49:15.960Z,1.00
2019-03-20T10:51:45.064Z,1.00
2019-03-20T10:54:25.235Z,1.27
2019-03-20T10:56:54.374Z,0.70
2019-03-20T10:59:23.552Z,1.07
2019-03-20T11:01:52.725Z,1.10
2019-03-20T11:04:21.913Z,1.57
2019-03-20T11:06:51.113Z,1.10
2019-03-20T11:09:21.548Z,1.10
2019-03-20T11:11:50.715Z,1.23
2019-03-20T11:14:19.911Z,0.93
2019-03-20T11:16:51.306Z,1.67
2019-03-20T11:19:20.384Z,1.40
2019-03-20T11:21:52.195Z,1.47
2019-03-20T11:24:21.368Z,1.50
2019-03-20T11:26:50.358Z,1.10
2019-03-20T11:29:21.734Z,0.80
2019-03-20T11:31:50.333Z,1.00
2019-03-20T11:34:19.261Z,1.07
2019-03-20T11:36:49.817Z,1.33
2019-03-20T11:39:29.184Z,1.13
2019-03-20T11:41:50.701Z,0.83
2019-03-20T11:44:19.854Z,1.03
2019-03-20T11:46:48.847Z,1.03
2019-03-20T11:49:17.831Z,1.23
2019-03-20T11:51:46.747Z,1.43
2019-03-20T11:54:15.672Z,1.53
2019-03-20T11:56:44.723Z,1.27
2019-03-20T11:59:13.638Z,1.30
2019-03-20T12:01:42.677Z,1.33
2019-03-20T12:04:11.666Z,1.13
2019-03-20T12:06:40.658Z,1.07
2019-03-20T12:09:10.596Z,1.27
2019-03-20T12:11:45.964Z,1.00
2019-03-20T12:14:10.127Z,1.30
2019-03-20T12:16:39.085Z,0.97
2019-03-20T12:19:07.981Z,1.00
2019-03-20T12:21:37.053Z,1.10
2019-03-20T12:24:06.188Z,1.17
2019-03-20T12:26:35.171Z,1.50
2019-03-20T12:29:04.172Z,0.97
2019-03-20T12:31:33.094Z,1.80
2019-03-20T12:34:02.333Z,1.00
2019-03-20T12:36:31.444Z,1.33
2019-03-20T12:39:00.518Z,1.03
2019-03-20T12:41:29.405Z,0.80
2019-03-20T12:43:59.783Z,0.97
2019-03-20T12:46:40.914Z,0.90
2019-03-20T12:48:59.877Z,1.03
2019-03-20T12:51:28.956Z,1.40
2019-03-20T12:53:58.010Z,1.63
2019-03-20T12:56:26.993Z,1.67
2019-03-20T12:58:58.823Z,3.77
2019-03-20T13:01:27.824Z,1.30
2019-03-20T13:03:56.691Z,1.40
2019-03-20T13:06:25.645Z,1.37
2019-03-20T13:08:54.719Z,1.40
2019-03-20T13:11:23.672Z,1.27
2019-03-20T13:13:52.564Z,1.40
2019-03-20T13:16:21.478Z,1.77
2019-03-20T13:18:50.480Z,1.27
2019-03-20T13:21:19.404Z,1.30
2019-03-20T13:23:48.354Z,1.60
2019-03-20T13:26:17.278Z,1.50
2019-03-20T13:28:46.308Z,1.17
2019-03-20T13:31:18.018Z,2.20
2019-03-20T13:33:49.011Z,1.13
2019-03-20T13:36:17.872Z,1.53
2019-03-20T13:38:46.912Z,1.63
2019-03-20T13:41:16.045Z,1.60
2019-03-20T13:43:45.156Z,1.30
2019-03-20T13:46:14.256Z,1.50
2019-03-20T13:48:43.357Z,1.20
2019-03-20T13:51:12.461Z,1.00
2019-03-20T13:53:41.636Z,0.80
2019-03-20T13:56:10.674Z,1.53
2019-03-20T13:58:42.048Z,0.93
2019-03-20T14:01:11.046Z,1.37
2019-03-20T14:03:40.011Z,1.20
2019-03-20T14:06:08.906Z,1.50
2019-03-20T14:08:37.885Z,0.97
2019-03-20T14:11:06.730Z,1.40
2019-03-20T14:13:35.605Z,1.10
2019-03-20T14:16:04.502Z,1.00
2019-03-20T14:18:33.714Z,1.50
2019-03-20T14:21:02.785Z,1.00
2019-03-20T14:23:31.791Z,1.40
2019-03-20T14:26:00.994Z,1.00
2019-03-20T14:28:31.342Z,1.27
2019-03-20T14:31:00.414Z,1.20
2019-03-20T14:33:29.376Z,1.13
2019-03-20T14:35:59.432Z,1.70
2019-03-20T14:38:29.516Z,1.10
2019-03-20T14:40:58.557Z,1.03
2019-03-20T14:43:27.518Z,1.10
2019-03-20T14:45:56.541Z,1.13
2019-03-20T14:48:27.114Z,0.80
2019-03-20T14:50:56.216Z,1.13
2019-03-20T14:53:25.103Z,0.83
2019-03-20T14:55:54.103Z,1.33
2019-03-20T14:58:23.227Z,1.20
2019-03-20T15:00:52.221Z,1.00
2019-03-20T15:03:21.342Z,1.07
2019-03-20T15:05:50.401Z,1.00
2019-03-20T15:08:19.301Z,1.40
2019-03-20T15:10:48.395Z,1.30
2019-03-20T15:13:18.350Z,1.53
2019-03-20T15:16:09.297Z,2.07
2019-03-20T15:18:38.261Z,1.43
2019-03-20T15:21:07.192Z,1.00
2019-03-20T15:23:36.108Z,1.20
2019-03-20T15:26:05.250Z,1.80
2019-03-20T15:28:34.355Z,1.10
2019-03-20T15:31:03.491Z,1.23
2019-03-20T15:33:32.525Z,1.70
2019-03-20T15:36:01.447Z,1.53
2019-03-20T15:38:30.372Z,1.23
2019-03-20T15:40:59.451Z,1.33
2019-03-20T15:43:29.128Z,1.13
2019-03-20T15:45:58.128Z,1.10
2019-03-20T15:48:27.121Z,1.17
2019-03-20T15:50:56.225Z,1.10
2019-03-20T15:53:26.136Z,0.80
2019-03-20T15:55:55.137Z,0.80
2019-03-20T15:58:24.126Z,0.93
2019-03-20T16:00:53.139Z,1.30
2019-03-20T16:03:22.956Z,0.93
2019-03-20T16:05:51.914Z,0.70
2019-03-20T16:08:21.099Z,0.90
2019-03-20T16:10:50.200Z,1.30
2019-03-20T16:13:19.243Z,0.93
2019-03-20T16:15:48.407Z,1.10
2019-03-20T16:18:17.400Z,1.30
2019-03-20T16:20:46.539Z,0.80
2019-03-20T16:23:15.652Z,1.27
2019-03-20T16:25:44.747Z,0.90
2019-03-20T16:28:13.903Z,0.60
2019-03-20T16:30:51.867Z,1.40
2019-03-20T16:33:18.188Z,1.43
2019-03-20T16:35:48.162Z,0.83
2019-03-20T16:38:17.024Z,0.80
2019-03-20T16:40:45.828Z,1.00
2019-03-20T16:43:14.781Z,0.70
2019-03-20T16:45:43.788Z,0.97
2019-03-20T16:48:12.956Z,1.50
2019-03-20T16:50:41.849Z,1.50
2019-03-20T16:53:10.802Z,1.00
2019-03-20T16:55:39.768Z,1.03
2019-03-20T16:58:08.681Z,1.10
2019-03-20T17:00:37.682Z,0.80
2019-03-20T17:03:08.732Z,1.23
2019-03-20T17:05:37.716Z,0.93
2019-03-20T17:08:06.682Z,0.80
2019-03-20T17:10:37.281Z,1.40
2019-03-20T17:13:06.317Z,1.57
2019-03-20T17:15:35.309Z,1.30
2019-03-20T17:18:04.410Z,1.07
2019-03-20T17:20:33.378Z,1.10
2019-03-20T17:23:02.492Z,0.80
2019-03-20T17:25:31.471Z,0.90
2019-03-20T17:28:00.451Z,0.63
2019-03-20T17:30:31.149Z,0.80
2019-03-20T17:33:00.134Z,0.70
2019-03-20T17:35:28.950Z,0.90
2019-03-20T17:37:58.234Z,0.73
2019-03-20T17:40:27.308Z,0.80
2019-03-20T17:42:56.253Z,0.95
2019-03-20T17:45:26.436Z,1.27
2019-03-20T17:47:55.386Z,0.80
2019-03-20T17:50:27.868Z,1.20
2019-03-20T17:52:58.010Z,1.07
2019-03-20T17:55:27.385Z,1.17
2019-03-20T17:57:57.419Z,1.43
2019-03-20T18:00:33.307Z,1.67
2019-03-20T18:03:02.250Z,1.13
2019-03-20T18:05:31.169Z,1.87
2019-03-20T18:08:00.235Z,1.30
2019-03-20T18:10:29.219Z,1.20
2019-03-20T18:12:58.155Z,1.17
2019-03-20T18:15:27.082Z,1.80
2019-03-20T18:17:56.261Z,2.40
2019-03-20T18:20:25.270Z,2.40
2019-03-20T18:22:54.144Z,3.03
2019-03-20T18:25:23.162Z,3.43
2019-03-20T18:27:52.325Z,4.30
2019-03-20T18:30:22.161Z,2.70
2019-03-20T18:32:57.005Z,3.10
2019-03-20T18:35:26.079Z,2.90
2019-03-20T18:37:55.082Z,2.23
2019-03-20T18:40:24.100Z,2.17
2019-03-20T18:42:52.992Z,2.17
2019-03-20T18:45:22.189Z,2.30
2019-03-20T18:47:52.189Z,1.53
2019-03-20T18:50:21.057Z,2.10
2019-03-20T18:52:50.056Z,2.10
2019-03-20T18:55:19.046Z,2.30
2019-03-20T18:57:48.145Z,1.87
2019-03-20T19:00:21.906Z,2.50
2019-03-20T19:02:51.113Z,3.47
2019-03-20T19:05:26.513Z,3.33
2019-03-20T19:07:55.428Z,3.23
2019-03-20T19:10:24.343Z,4.30
2019-03-20T19:12:55.188Z,4.90
2019-03-20T19:15:24.058Z,4.80
2019-03-20T19:17:53.884Z,4.53
2019-03-20T19:20:23.753Z,3.87
2019-03-20T19:22:52.745Z,3.50
2019-03-20T19:25:22.730Z,3.83
2019-03-20T19:27:51.577Z,4.33
2019-03-20T19:30:20.577Z,4.53
2019-03-20T19:32:49.466Z,3.37
2019-03-20T19:35:18.378Z,4.33
2019-03-20T19:37:47.266Z,4.17
2019-03-20T19:40:16.284Z,3.97
2019-03-20T19:42:45.187Z,4.73
2019-03-20T19:45:14.249Z,3.80
2019-03-20T19:47:43.132Z,3.33
2019-03-20T19:50:13.819Z,4.23
2019-03-20T19:52:42.774Z,3.20
2019-03-20T19:55:11.651Z,3.93
2019-03-20T19:57:41.687Z,4.43
2019-03-20T20:00:13.214Z,3.77
2019-03-20T20:02:42.111Z,3.33
2019-03-20T20:05:15.678Z,3.90
2019-03-20T20:07:43.078Z,3.95
2019-03-20T20:10:12.378Z,3.67
2019-03-20T20:12:41.251Z,3.17
2019-03-20T20:15:13.106Z,2.73
2019-03-20T20:17:42.059Z,3.33
2019-03-20T20:20:13.015Z,3.50
2019-03-20T20:22:41.845Z,3.20
2019-03-20T20:25:10.836Z,3.90
2019-03-20T20:27:39.851Z,3.30
2019-03-20T20:30:11.493Z,3.47
2019-03-20T20:32:41.740Z,2.87
2019-03-20T20:35:10.531Z,3.30
2019-03-20T20:37:39.292Z,3.37
2019-03-20T20:40:09.320Z,3.40
2019-03-20T20:42:43.030Z,3.03
2019-03-20T20:45:08.881Z,3.50
2019-03-20T20:47:37.775Z,3.73
2019-03-20T20:50:06.906Z,4.00
2019-03-20T20:52:35.717Z,4.20
2019-03-20T20:55:05.334Z,4.43
2019-03-20T20:57:34.256Z,3.77
2019-03-20T21:00:05.339Z,4.17
2019-03-20T21:02:34.373Z,3.33
2019-03-20T21:05:04.756Z,3.30
2019-03-20T21:07:33.756Z,3.43
2019-03-20T21:10:02.650Z,3.70
2019-03-20T21:12:31.877Z,3.90
2019-03-20T21:15:00.663Z,3.10
2019-03-20T21:17:42.474Z,3.83
2019-03-20T21:20:11.803Z,3.80
2019-03-20T21:23:25.475Z,4.63
2019-03-20T21:25:57.372Z,3.93
2019-03-20T21:29:16.694Z,4.37
2019-03-20T21:31:53.417Z,4.40
2019-03-20T21:34:57.167Z,4.20
2019-03-20T21:38:03.219Z,3.93
2019-03-20T21:40:39.318Z,4.43
2019-03-20T21:43:58.466Z,2.73
2019-03-20T21:46:57.231Z,4.17
2019-03-20T21:49:27.519Z,4.20
2019-03-20T21:51:57.012Z,3.70
2019-03-20T21:55:10.199Z,4.07
2019-03-20T21:58:02.523Z,4.30
2019-03-20T22:01:07.479Z,3.87
2019-03-20T22:03:36.870Z,4.13
2019-03-20T22:06:43.794Z,4.10
2019-03-20T22:09:19.537Z,4.00
2019-03-20T22:12:14.369Z,4.50
2019-03-20T22:14:45.730Z,3.50
2019-03-20T22:17:52.966Z,4.43
2019-03-20T22:20:53.568Z,4.57
2019-03-20T22:24:09.496Z,4.27
2019-03-20T22:27:07.419Z,4.43
2019-03-20T22:29:37.763Z,4.10
2019-03-20T22:32:33.490Z,4.87
2019-03-20T22:35:29.323Z,4.40
2019-03-20T22:37:59.536Z,4.60
2019-03-20T22:41:12.168Z,5.13
2019-03-20T22:43:57.669Z,4.70
2019-03-20T22:47:10.669Z,5.60
2019-03-20T22:50:26.200Z,4.27
2019-03-20T22:53:37.898Z,4.97
2019-03-20T22:56:28.941Z,4.30
2019-03-20T22:58:58.378Z,4.90
2019-03-20T23:01:54.619Z,3.80
2019-03-20T23:04:28.373Z,3.63
2019-03-20T23:06:57.646Z,4.17
2019-03-20T23:09:26.895Z,4.23
2019-03-20T23:11:56.777Z,4.43
2019-03-20T23:14:26.075Z,4.63
2019-03-20T23:16:56.552Z,4.33
2019-03-20T23:19:25.944Z,4.47
2019-03-20T23:21:55.352Z,4.90
2019-03-20T23:24:24.804Z,4.97
2019-03-20T23:26:54.633Z,4.87
2019-03-20T23:29:24.158Z,4.50
2019-03-20T23:31:53.429Z,3.90
2019-03-20T23:34:22.864Z,4.63
2019-03-20T23:36:52.324Z,3.80
2019-03-20T23:39:21.657Z,3.70
2019-03-20T23:41:50.909Z,3.60
2019-03-20T23:44:20.213Z,3.63
2019-03-20T23:46:49.452Z,3.70
2019-03-20T23:49:21.154Z,3.60
2019-03-20T23:51:50.528Z,3.37
2019-03-20T23:54:23.293Z,3.20
2019-03-20T23:56:52.684Z,3.60
2019-03-20T23:59:22.120Z,2.93
